createdAt,value
2023-02-28T00:01:53.421Z,-1.40
2023-02-28T00:04:26.487Z,-1.30
2023-02-28T00:06:59.490Z,-1.30
2023-02-28T00:09:34.044Z,-1.20
2023-02-28T00:12:11.013Z,-1.30
2023-02-28T00:14:43.979Z,-1.40
2023-02-28T00:17:18.741Z,-1.30
2023-02-28T00:19:52.912Z,-1.30
2023-02-28T00:22:26.013Z,-1.30
2023-02-28T00:25:00.285Z,-1.30
2023-02-28T00:27:33.361Z,-1.20
2023-02-28T00:30:09.226Z,-1.20
2023-02-28T00:32:42.318Z,-1.30
2023-02-28T00:35:15.753Z,-1.20
2023-02-28T00:37:50.589Z,-1.30
2023-02-28T00:40:24.941Z,-1.30
2023-02-28T00:42:57.898Z,-1.30
2023-02-28T00:45:30.986Z,-1.30
2023-02-28T00:48:05.107Z,-1.40
2023-02-28T00:50:38.171Z,-1.40
2023-02-28T00:53:11.126Z,-1.40
2023-02-28T00:55:45.774Z,-1.30
2023-02-28T00:58:19.248Z,-1.30
2023-02-28T01:00:53.671Z,-1.20
2023-02-28T01:03:27.094Z,-1.20
2023-02-28T01:06:00.496Z,-1.30
2023-02-28T01:08:33.628Z,-1.30
2023-02-28T01:11:13.386Z,-1.30
2023-02-28T01:13:48.301Z,-1.40
2023-02-28T01:16:21.448Z,-1.40
2023-02-28T01:18:54.582Z,-1.40
2023-02-28T01:21:28.201Z,-1.40
2023-02-28T01:24:01.414Z,-1.40
2023-02-28T01:26:36.021Z,-1.40
2023-02-28T01:29:09.092Z,-1.40
2023-02-28T01:31:42.082Z,-1.40
2023-02-28T01:34:15.138Z,-1.40
2023-02-28T01:36:48.137Z,-1.50
2023-02-28T01:39:21.122Z,-1.40
2023-02-28T01:41:55.451Z,-1.40
2023-02-28T01:45:06.434Z,-1.40
2023-02-28T01:47:43.671Z,-1.40
2023-02-28T01:50:21.455Z,-1.50
2023-02-28T01:52:57.488Z,-1.40
2023-02-28T01:55:31.554Z,-1.40
2023-02-28T01:58:10.175Z,-1.40
2023-02-28T02:00:43.705Z,-1.40
2023-02-28T02:03:20.857Z,-1.50
2023-02-28T02:05:54.031Z,-1.50
2023-02-28T02:08:30.412Z,-1.50
2023-02-28T02:11:04.444Z,-1.50
2023-02-28T02:14:09.221Z,-1.40
2023-02-28T02:17:07.011Z,-1.50
2023-02-28T02:20:27.118Z,-1.60
2023-02-28T02:23:32.807Z,-1.60
2023-02-28T02:26:36.911Z,-1.60
2023-02-28T02:29:54.369Z,-1.60
2023-02-28T02:33:16.666Z,-1.60
2023-02-28T02:35:56.828Z,-1.60
2023-02-28T02:38:37.123Z,-1.70
2023-02-28T02:41:16.400Z,-1.70
2023-02-28T02:43:54.763Z,-1.50
2023-02-28T02:46:32.482Z,-1.50
2023-02-28T02:49:10.308Z,-1.40
2023-02-28T02:51:46.505Z,-1.50
2023-02-28T02:54:23.238Z,-1.70
2023-02-28T02:56:57.703Z,-1.60
2023-02-28T02:59:32.333Z,-1.60
2023-02-28T03:02:10.370Z,-1.60
2023-02-28T03:04:48.541Z,-1.60
2023-02-28T03:07:23.036Z,-1.60
2023-02-28T03:09:58.371Z,-1.60
2023-02-28T03:12:42.889Z,-1.60
2023-02-28T03:15:23.745Z,-1.50
2023-02-28T03:18:06.781Z,-1.50
2023-02-28T03:20:49.297Z,-1.50
2023-02-28T03:23:31.732Z,-1.40
2023-02-28T03:26:10.201Z,-1.40
2023-02-28T03:28:53.382Z,-1.40
2023-02-28T03:31:33.396Z,-1.50
2023-02-28T03:34:12.926Z,-1.40
2023-02-28T03:36:50.472Z,-1.20
2023-02-28T03:39:31.022Z,-1.30
2023-02-28T03:42:09.520Z,-1.30
2023-02-28T03:44:45.373Z,-1.20
2023-02-28T03:47:24.372Z,-1.30
2023-02-28T03:50:01.327Z,-1.30
2023-02-28T03:52:42.104Z,-1.20
2023-02-28T03:55:17.899Z,-1.20
2023-02-28T03:58:02.425Z,-1.20
2023-02-28T04:00:39.267Z,-1.10
2023-02-28T04:03:12.337Z,-1.10
2023-02-28T04:05:52.956Z,-1.20
2023-02-28T04:08:26.045Z,-1.20
2023-02-28T04:11:06.870Z,-1.10
2023-02-28T04:13:39.850Z,-1.00
2023-02-28T04:16:18.766Z,-1.10
2023-02-28T04:19:02.959Z,-1.00
2023-02-28T04:21:39.897Z,-1.00
2023-02-28T04:24:15.987Z,-1.00
2023-02-28T04:26:53.013Z,-1.00
2023-02-28T04:29:28.687Z,-1.10
2023-02-28T04:32:03.421Z,-1.00
2023-02-28T04:34:36.641Z,-1.00
2023-02-28T04:37:13.845Z,-1.10
2023-02-28T04:39:47.164Z,-1.10
2023-02-28T04:42:21.513Z,-1.20
2023-02-28T04:44:54.647Z,-1.20
2023-02-28T04:47:27.629Z,-1.20
2023-02-28T04:50:00.607Z,-1.00
2023-02-28T04:52:33.632Z,-1.00
2023-02-28T04:55:07.995Z,-1.00
2023-02-28T04:57:43.588Z,-0.90
2023-02-28T05:00:17.737Z,-0.80
2023-02-28T05:02:50.720Z,-1.00
2023-02-28T05:05:23.899Z,-1.10
2023-02-28T05:07:57.256Z,-0.80
2023-02-28T05:10:30.761Z,-0.90
2023-02-28T05:13:05.537Z,-0.80
2023-02-28T05:15:38.569Z,-0.80
2023-02-28T05:18:11.783Z,-0.90
2023-02-28T05:20:44.747Z,-0.90
2023-02-28T05:23:19.718Z,-0.80
2023-02-28T05:25:53.130Z,-0.90
2023-02-28T05:28:27.444Z,-1.00
2023-02-28T05:31:00.474Z,-1.00
2023-02-28T05:33:33.851Z,-1.00
2023-02-28T05:36:08.652Z,-0.90
2023-02-28T05:38:41.787Z,-0.80
2023-02-28T05:41:14.856Z,-1.00
2023-02-28T05:43:49.786Z,-0.90
2023-02-28T05:46:23.007Z,-0.80
2023-02-28T05:48:56.785Z,-0.80
2023-02-28T05:51:30.336Z,-0.90
2023-02-28T05:54:03.981Z,-0.60
2023-02-28T05:56:38.731Z,-0.80
2023-02-28T05:59:13.452Z,-0.80
2023-02-28T06:01:49.270Z,-0.90
2023-02-28T06:04:31.509Z,-1.00
2023-02-28T06:07:05.313Z,-1.00
2023-02-28T06:09:39.156Z,-0.70
2023-02-28T06:12:13.114Z,-0.90
2023-02-28T06:14:47.542Z,-1.00
2023-02-28T06:17:20.700Z,-1.10
2023-02-28T06:19:53.935Z,-0.90
2023-02-28T06:22:27.267Z,-1.00
2023-02-28T06:25:00.417Z,-1.00
2023-02-28T06:27:34.551Z,-1.00
2023-02-28T06:30:11.627Z,-0.60
2023-02-28T06:32:44.949Z,-0.80
2023-02-28T06:35:18.434Z,-0.80
2023-02-28T06:37:51.546Z,-0.90
2023-02-28T06:40:24.863Z,-0.90
2023-02-28T06:42:58.010Z,-1.10
2023-02-28T06:45:32.663Z,-1.10
2023-02-28T06:48:06.072Z,-1.10
2023-02-28T06:50:39.501Z,-1.10
2023-02-28T06:53:12.633Z,-0.90
2023-02-28T06:55:45.736Z,-0.90
2023-02-28T06:58:19.951Z,-0.80
2023-02-28T07:00:55.237Z,-0.80
2023-02-28T07:03:28.320Z,-0.90
2023-02-28T07:06:02.068Z,-0.90
2023-02-28T07:08:35.444Z,-0.80
2023-02-28T07:11:08.429Z,-0.60
2023-02-28T07:13:41.444Z,-0.80
2023-02-28T07:16:15.836Z,-0.80
2023-02-28T07:18:49.226Z,-0.70
2023-02-28T07:21:22.248Z,-0.80
2023-02-28T07:23:55.260Z,-0.90
2023-02-28T07:26:28.269Z,-0.70
2023-02-28T07:29:01.352Z,-0.50
2023-02-28T07:31:35.700Z,-0.50
2023-02-28T07:34:08.916Z,-0.70
2023-02-28T07:36:42.103Z,-0.50
2023-02-28T07:39:15.191Z,-0.70
2023-02-28T07:41:48.159Z,-0.70
2023-02-28T07:44:22.076Z,-0.50
2023-02-28T07:46:56.673Z,-0.60
2023-02-28T07:49:29.694Z,-0.50
2023-02-28T07:52:02.662Z,-0.70
2023-02-28T07:54:36.174Z,-0.60
2023-02-28T07:57:09.120Z,-0.60
2023-02-28T07:59:42.044Z,-0.60
2023-02-28T08:02:18.145Z,-0.60
2023-02-28T08:04:51.370Z,-0.60
2023-02-28T08:07:24.381Z,-0.60
2023-02-28T08:09:57.458Z,-0.50
2023-02-28T08:12:30.455Z,-0.60
2023-02-28T08:15:03.434Z,-0.50
2023-02-28T08:17:37.774Z,-0.50
2023-02-28T08:20:12.616Z,-0.40
2023-02-28T08:22:46.387Z,-0.30
2023-02-28T08:25:20.232Z,0.00
2023-02-28T08:27:53.998Z,-0.20
2023-02-28T08:30:26.976Z,-0.20
2023-02-28T08:33:02.746Z,-0.30
2023-02-28T08:35:38.380Z,-0.10
2023-02-28T08:38:11.355Z,0.00
2023-02-28T08:40:44.379Z,0.10
2023-02-28T08:43:17.540Z,0.10
2023-02-28T08:45:53.889Z,0.30
2023-02-28T08:48:30.755Z,0.30
2023-02-28T08:51:10.167Z,0.30
2023-02-28T08:53:43.323Z,0.30
2023-02-28T08:56:18.322Z,0.30
2023-02-28T08:58:52.500Z,0.60
2023-02-28T09:01:29.500Z,0.70
2023-02-28T09:04:04.297Z,0.80
2023-02-28T09:06:37.663Z,0.70
2023-02-28T09:09:10.702Z,0.80
2023-02-28T09:11:43.745Z,0.90
2023-02-28T09:14:18.409Z,0.80
2023-02-28T09:16:51.716Z,0.80
2023-02-28T09:19:26.042Z,0.70
2023-02-28T09:21:59.318Z,0.90
2023-02-28T09:24:32.857Z,1.00
2023-02-28T09:27:07.209Z,1.00
2023-02-28T09:29:40.522Z,1.10
2023-02-28T09:32:13.629Z,1.20
2023-02-28T09:34:47.955Z,1.10
2023-02-28T09:37:20.932Z,1.20
2023-02-28T09:39:53.967Z,1.10
2023-02-28T09:42:33.719Z,1.30
2023-02-28T09:45:18.179Z,1.10
2023-02-28T09:47:54.349Z,1.20
2023-02-28T09:50:36.207Z,1.20
2023-02-28T09:53:22.403Z,1.30
2023-02-28T09:56:00.664Z,1.50
2023-02-28T09:58:44.102Z,1.50
2023-02-28T10:01:30.420Z,1.60
2023-02-28T10:04:10.419Z,1.80
2023-02-28T10:06:50.942Z,1.60
2023-02-28T10:09:29.343Z,1.80
2023-02-28T10:12:06.728Z,1.80
2023-02-28T10:14:51.612Z,1.90
2023-02-28T10:17:28.923Z,2.00
2023-02-28T10:20:11.882Z,2.40
2023-02-28T10:22:55.605Z,2.50
2023-02-28T10:25:31.174Z,2.60
2023-02-28T10:28:13.303Z,2.50
2023-02-28T10:30:50.226Z,2.60
2023-02-28T10:33:27.012Z,2.90
2023-02-28T10:36:01.553Z,2.60
2023-02-28T10:38:39.016Z,2.70
2023-02-28T10:41:16.125Z,2.70
2023-02-28T10:43:49.118Z,2.80
2023-02-28T10:46:26.830Z,2.70
2023-02-28T10:49:05.905Z,3.00
2023-02-28T10:51:41.674Z,2.70
2023-02-28T10:54:21.965Z,2.90
2023-02-28T10:57:19.247Z,3.10
2023-02-28T10:59:53.784Z,3.00
2023-02-28T11:02:36.578Z,3.10
2023-02-28T11:05:28.763Z,3.00
2023-02-28T11:08:08.902Z,3.10
2023-02-28T11:10:48.202Z,3.30
2023-02-28T11:13:26.486Z,3.50
2023-02-28T11:16:03.156Z,3.60
2023-02-28T11:18:44.015Z,3.60
2023-02-28T11:21:29.870Z,3.70
2023-02-28T11:24:07.700Z,3.90
2023-02-28T11:26:45.171Z,4.00
2023-02-28T11:29:23.405Z,4.00
2023-02-28T11:32:15.238Z,3.80
2023-02-28T11:35:03.234Z,3.80
2023-02-28T11:37:36.295Z,4.10
2023-02-28T11:40:16.518Z,4.20
2023-02-28T11:43:15.612Z,4.20
2023-02-28T11:46:08.999Z,4.10
2023-02-28T11:48:53.920Z,3.70
2023-02-28T11:51:34.532Z,3.80
2023-02-28T11:54:27.981Z,3.80
2023-02-28T11:57:09.240Z,3.80
2023-02-28T12:00:00.377Z,3.60
2023-02-28T12:02:53.044Z,3.70
2023-02-28T12:05:34.187Z,3.80
2023-02-28T12:08:25.156Z,4.00
2023-02-28T12:11:13.014Z,3.90
2023-02-28T12:14:00.293Z,3.90
2023-02-28T12:17:03.352Z,4.00
2023-02-28T12:19:46.971Z,4.20
2023-02-28T12:22:45.691Z,4.40
2023-02-28T12:25:44.425Z,4.30
2023-02-28T12:28:23.804Z,4.40
2023-02-28T12:31:02.566Z,4.40
2023-02-28T12:33:42.810Z,4.40
2023-02-28T12:36:23.014Z,4.50
2023-02-28T12:39:02.496Z,4.50
2023-02-28T12:41:41.419Z,4.50
2023-02-28T12:44:20.148Z,4.60
2023-02-28T12:46:56.605Z,4.60
2023-02-28T12:49:35.566Z,4.60
2023-02-28T12:52:12.143Z,4.60
2023-02-28T12:54:53.300Z,4.50
2023-02-28T12:57:36.067Z,4.40
2023-02-28T13:00:16.306Z,4.50
2023-02-28T13:03:31.225Z,4.50
2023-02-28T13:06:24.710Z,4.30
2023-02-28T13:09:07.548Z,4.60
2023-02-28T13:11:44.662Z,4.50
2023-02-28T13:14:28.884Z,4.40
2023-02-28T13:17:11.746Z,4.40
2023-02-28T13:19:48.712Z,4.40
2023-02-28T13:22:41.096Z,4.40
2023-02-28T13:25:55.537Z,4.40
2023-02-28T13:29:23.858Z,4.60
2023-02-28T13:32:43.016Z,4.80
2023-02-28T13:35:46.133Z,4.80
2023-02-28T13:38:36.820Z,4.70
2023-02-28T13:41:48.608Z,4.70
2023-02-28T13:44:24.950Z,4.70
2023-02-28T13:47:24.746Z,4.80
2023-02-28T13:50:25.998Z,5.10
2023-02-28T13:53:39.233Z,5.00
2023-02-28T13:56:29.781Z,4.90
2023-02-28T13:59:15.585Z,4.90
2023-02-28T14:02:05.692Z,4.90
2023-02-28T14:04:56.458Z,4.90
2023-02-28T14:07:36.298Z,5.00
2023-02-28T14:10:26.897Z,4.80
2023-02-28T14:13:14.794Z,4.90
2023-02-28T14:15:58.643Z,5.00
2023-02-28T14:18:34.442Z,5.10
2023-02-28T14:21:26.386Z,4.90
2023-02-28T14:24:43.916Z,4.90
2023-02-28T14:27:36.715Z,4.90
2023-02-28T14:30:44.396Z,5.20
2023-02-28T14:33:29.041Z,5.10
2023-02-28T14:36:19.671Z,5.10
2023-02-28T14:38:55.258Z,5.10
2023-02-28T14:41:36.236Z,5.00
2023-02-28T14:44:21.076Z,5.00
2023-02-28T14:46:57.309Z,5.10
2023-02-28T14:49:33.044Z,5.20
2023-02-28T14:52:15.141Z,5.20
2023-02-28T14:54:53.887Z,5.30
2023-02-28T14:57:30.699Z,5.20
2023-02-28T15:00:14.691Z,5.00
2023-02-28T15:02:47.769Z,5.10
2023-02-28T15:05:31.098Z,5.20
2023-02-28T15:08:09.120Z,5.10
2023-02-28T15:10:45.098Z,5.00
2023-02-28T15:13:18.897Z,4.90
2023-02-28T15:16:02.473Z,4.80
2023-02-28T15:18:47.091Z,4.90
2023-02-28T15:21:23.170Z,4.80
2023-02-28T15:24:01.554Z,4.70
2023-02-28T15:26:37.782Z,4.80
2023-02-28T15:29:17.271Z,4.70
2023-02-28T15:31:58.301Z,4.60
2023-02-28T15:34:43.384Z,4.60
2023-02-28T15:37:43.178Z,4.70
2023-02-28T15:40:19.682Z,4.60
2023-02-28T15:43:15.235Z,4.70
2023-02-28T15:45:51.168Z,4.80
2023-02-28T15:48:28.901Z,5.00
2023-02-28T15:51:08.592Z,4.90
2023-02-28T15:53:49.922Z,4.70
2023-02-28T15:56:28.076Z,4.60
2023-02-28T15:59:05.440Z,4.50
2023-02-28T16:01:40.422Z,4.60
2023-02-28T16:04:19.341Z,4.50
2023-02-28T16:07:04.677Z,4.30
2023-02-28T16:09:38.593Z,4.20
2023-02-28T16:12:14.429Z,4.10
2023-02-28T16:14:48.426Z,4.10
2023-02-28T16:17:24.248Z,4.10
2023-02-28T16:19:59.116Z,4.00
2023-02-28T16:22:32.097Z,4.00
2023-02-28T16:25:08.832Z,4.00
2023-02-28T16:27:42.458Z,3.90
2023-02-28T16:30:22.835Z,3.90
2023-02-28T16:32:57.593Z,3.80
2023-02-28T16:35:31.914Z,3.80
2023-02-28T16:38:05.066Z,3.70
2023-02-28T16:40:38.756Z,3.70
2023-02-28T16:43:18.652Z,3.60
2023-02-28T16:46:01.155Z,3.60
2023-02-28T16:48:34.459Z,3.60
2023-02-28T16:51:13.077Z,3.50
2023-02-28T16:53:47.078Z,3.50
2023-02-28T16:56:22.676Z,3.40
2023-02-28T16:59:02.210Z,3.40
2023-02-28T17:01:35.572Z,3.30
2023-02-28T17:04:10.391Z,3.30
2023-02-28T17:06:44.785Z,3.20
2023-02-28T17:09:21.007Z,3.20
2023-02-28T17:11:54.843Z,3.10
2023-02-28T17:14:27.934Z,3.10
2023-02-28T17:17:00.991Z,3.00
2023-02-28T17:19:34.526Z,3.00
2023-02-28T17:22:10.907Z,2.90
2023-02-28T17:24:43.905Z,2.80
2023-02-28T17:27:16.888Z,2.80
2023-02-28T17:29:49.988Z,2.80
2023-02-28T17:32:23.007Z,2.70
2023-02-28T17:34:55.989Z,2.70
2023-02-28T17:37:31.189Z,2.70
2023-02-28T17:40:05.128Z,2.60
2023-02-28T17:42:38.134Z,2.50
2023-02-28T17:45:12.117Z,2.50
2023-02-28T17:47:48.936Z,2.50
2023-02-28T17:50:24.053Z,2.50
2023-02-28T17:52:59.431Z,2.50
2023-02-28T17:55:32.368Z,2.40
2023-02-28T17:58:05.825Z,2.40
2023-02-28T18:00:39.184Z,2.30
2023-02-28T18:03:13.780Z,2.30
2023-02-28T18:05:46.760Z,2.30
2023-02-28T18:08:21.219Z,2.10
2023-02-28T18:10:54.713Z,2.10
2023-02-28T18:13:28.616Z,2.10
2023-02-28T18:16:01.620Z,2.10
2023-02-28T18:18:38.066Z,1.90
2023-02-28T18:21:14.832Z,1.90
2023-02-28T18:23:50.030Z,1.80
2023-02-28T18:26:23.005Z,1.70
2023-02-28T18:28:55.965Z,1.60
2023-02-28T18:31:29.001Z,1.60
2023-02-28T18:34:02.733Z,1.50
2023-02-28T18:36:35.657Z,1.40
2023-02-28T18:39:11.944Z,1.40
2023-02-28T18:41:44.941Z,1.20
2023-02-28T18:44:20.162Z,1.20
2023-02-28T18:46:53.805Z,1.00
2023-02-28T18:49:26.849Z,1.00
2023-02-28T18:51:59.830Z,0.90
2023-02-28T18:54:34.145Z,0.80
2023-02-28T18:57:07.205Z,0.70
2023-02-28T18:59:40.159Z,0.70
2023-02-28T19:02:13.113Z,0.70
2023-02-28T19:04:46.167Z,0.60
2023-02-28T19:07:19.162Z,0.60
2023-02-28T19:09:53.450Z,0.60
2023-02-28T19:12:26.578Z,0.50
2023-02-28T19:15:00.235Z,0.40
2023-02-28T19:17:33.465Z,0.40
2023-02-28T19:20:09.147Z,0.30
2023-02-28T19:22:42.522Z,0.30
2023-02-28T19:25:17.248Z,0.30
2023-02-28T19:27:53.371Z,0.30
2023-02-28T19:30:26.698Z,0.20
2023-02-28T19:32:59.679Z,0.10
2023-02-28T19:35:32.758Z,0.00
2023-02-28T19:38:05.709Z,0.00
2023-02-28T19:40:40.348Z,-0.10
2023-02-28T19:43:13.676Z,0.00
2023-02-28T19:45:47.375Z,0.00
2023-02-28T19:48:25.030Z,-0.10
2023-02-28T19:50:59.630Z,-0.10
2023-02-28T19:53:34.418Z,-0.20
2023-02-28T19:56:10.052Z,-0.20
2023-02-28T19:58:43.042Z,-0.20
2023-02-28T20:01:19.217Z,-0.20
2023-02-28T20:03:52.821Z,-0.30
2023-02-28T20:06:25.828Z,-0.30
2023-02-28T20:08:58.857Z,-0.30
2023-02-28T20:11:33.154Z,-0.40
2023-02-28T20:14:06.242Z,-0.40
2023-02-28T20:16:42.484Z,-0.50
2023-02-28T20:19:15.426Z,-0.50
2023-02-28T20:21:48.387Z,-0.50
2023-02-28T20:24:25.704Z,-0.50
2023-02-28T20:27:00.057Z,-0.50
2023-02-28T20:29:34.419Z,-0.50
2023-02-28T20:32:08.127Z,-0.50
2023-02-28T20:34:41.428Z,-0.40
2023-02-28T20:37:14.399Z,-0.60
2023-02-28T20:39:48.456Z,-0.70
2023-02-28T20:42:22.773Z,-0.70
2023-02-28T20:44:55.710Z,-0.80
2023-02-28T20:47:29.400Z,-0.80
2023-02-28T20:50:02.366Z,-0.70
2023-02-28T20:52:35.347Z,-0.80
2023-02-28T20:55:09.479Z,-0.80
2023-02-28T20:57:43.799Z,-0.80
2023-02-28T21:00:19.425Z,-0.80
2023-02-28T21:02:52.394Z,-0.80
2023-02-28T21:05:25.527Z,-0.90
2023-02-28T21:07:58.522Z,-0.90
2023-02-28T21:10:32.197Z,-0.90
2023-02-28T21:13:06.494Z,-1.00
2023-02-28T21:15:40.351Z,-1.00
2023-02-28T21:18:13.418Z,-1.00
2023-02-28T21:20:46.780Z,-1.10
2023-02-28T21:23:19.744Z,-1.10
2023-02-28T21:25:53.332Z,-1.10
2023-02-28T21:28:27.651Z,-1.10
2023-02-28T21:31:04.951Z,-1.10
2023-02-28T21:33:38.001Z,-1.00
2023-02-28T21:36:14.444Z,-1.10
2023-02-28T21:38:50.990Z,-1.10
2023-02-28T21:41:25.491Z,-1.20
2023-02-28T21:43:59.811Z,-1.20
2023-02-28T21:46:33.325Z,-1.30
2023-02-28T21:49:06.539Z,-1.30
2023-02-28T21:51:39.880Z,-1.20
2023-02-28T21:54:13.295Z,-1.20
2023-02-28T21:56:46.269Z,-1.20
2023-02-28T21:59:21.274Z,-1.20
2023-02-28T22:01:54.995Z,-1.20
2023-02-28T22:04:28.020Z,-1.20
2023-02-28T22:07:00.965Z,-1.20
2023-02-28T22:09:33.954Z,-1.20
2023-02-28T22:12:08.478Z,-1.20
2023-02-28T22:14:45.259Z,-1.30
2023-02-28T22:17:18.211Z,-1.30
2023-02-28T22:19:51.164Z,-1.40
2023-02-28T22:22:24.901Z,-1.40
2023-02-28T22:24:58.084Z,-1.40
2023-02-28T22:27:31.056Z,-1.40
2023-02-28T22:30:06.298Z,-1.40
2023-02-28T22:32:39.250Z,-1.40
2023-02-28T22:35:12.187Z,-1.40
2023-02-28T22:37:45.138Z,-1.40
2023-02-28T22:40:18.319Z,-1.40
2023-02-28T22:42:51.545Z,-1.40
2023-02-28T22:45:27.200Z,-1.40
2023-02-28T22:48:00.158Z,-1.40
2023-02-28T22:50:33.826Z,-1.40
2023-02-28T22:53:06.818Z,-1.40
2023-02-28T22:55:39.792Z,-1.40
2023-02-28T22:58:12.769Z,-1.30
2023-02-28T23:00:47.181Z,-1.30
2023-02-28T23:03:20.145Z,-1.30
2023-02-28T23:05:53.362Z,-1.30
2023-02-28T23:08:26.331Z,-1.30
2023-02-28T23:10:59.314Z,-1.30
2023-02-28T23:13:32.337Z,-1.30
2023-02-28T23:16:09.442Z,-1.40
2023-02-28T23:18:42.471Z,-1.40
2023-02-28T23:21:15.483Z,-1.30
2023-02-28T23:23:48.509Z,-1.30
2023-02-28T23:26:21.602Z,-1.30
2023-02-28T23:28:54.584Z,-1.30
2023-02-28T23:31:28.946Z,-1.40
2023-02-28T23:34:01.981Z,-1.40
2023-02-28T23:36:35.128Z,-1.40
2023-02-28T23:39:09.392Z,-1.40
2023-02-28T23:41:42.353Z,-1.40
2023-02-28T23:44:16.925Z,-1.40
2023-02-28T23:46:53.140Z,-1.40
2023-02-28T23:49:26.196Z,-1.40
2023-02-28T23:51:59.925Z,-1.40
2023-02-28T23:54:33.203Z,-1.30
2023-02-28T23:57:07.567Z,-1.30
2023-02-28T23:59:40.933Z,-1.30
